Time;durP1;ratioP1;P1;durP2;ratioP2;P2;SDS_P1;SDS_P2;PMS_P1;PMS_P2;Temp;Humidity;BMP_temperature;BMP_pressure;BME280_temperature;BME280_humidity;BME280_pressure;Samples;Min_cycle;Max_cycle;Signal;HPM_P1;HPM_P2
2022/08/30 00:03:05;;;;;;;14.90;10.70;;;;;;;19.45;98.68;101095.63;107403;1247;62814;-70
2022/08/30 00:05:35;;;;;;;16.30;10.80;;;;;;;19.44;98.68;101083.00;107307;1249;60872;-69
2022/08/30 00:08:04;;;;;;;17.40;11.40;;;;;;;19.38;100.00;101071.92;107408;1248;70055;-69
2022/08/30 00:10:33;;;;;;;15.70;10.20;;;;;;;19.36;100.00;101070.20;107367;1247;63779;-70
2022/08/30 00:13:02;;;;;;;13.50;10.10;;;;;;;19.36;99.66;101060.86;107367;1247;62365;-69
2022/08/30 00:15:32;;;;;;;13.50;9.30;;;;;;;19.33;99.82;101054.27;107355;1248;60890;-68
2022/08/30 00:18:01;;;;;;;13.10;9.30;;;;;;;19.29;99.13;101054.80;107346;1248;64946;-69
2022/08/30 00:20:33;;;;;;;19.40;10.10;;;;;;;19.23;98.65;101052.96;107287;1247;72496;-68
2022/08/30 00:23:03;;;;;;;13.10;10.10;;;;;;;19.21;98.56;101055.86;107264;1247;70972;-69
2022/08/30 00:25:32;;;;;;;14.80;9.30;;;;;;;19.20;98.12;101059.70;107330;1248;65151;-67
2022/08/30 00:28:02;;;;;;;13.30;8.80;;;;;;;19.12;97.65;101066.86;107231;1249;59120;-69
2022/08/30 00:30:30;;;;;;;13.00;9.30;;;;;;;19.21;100.00;101074.38;107290;1248;61103;-67
2022/08/30 00:32:59;;;;;;;13.00;9.80;;;;;;;19.28;100.00;101074.56;107296;1248;63628;-68
2022/08/30 00:35:28;;;;;;;12.40;9.80;;;;;;;19.29;100.00;101068.77;107393;1248;70504;-66
2022/08/30 00:37:57;;;;;;;15.50;9.90;;;;;;;19.31;100.00;101065.74;107514;1249;59943;-68
2022/08/30 00:40:27;;;;;;;12.40;8.30;;;;;;;19.34;100.00;101064.04;107708;1247;62560;-68
2022/08/30 00:42:59;;;;;;;10.90;8.30;;;;;;;19.27;100.00;101064.60;107666;1247;58875;-68
2022/08/30 00:45:36;;;;;;;13.00;8.50;;;;;;;19.20;100.00;101062.84;107514;1249;59157;-67
2022/08/30 00:48:06;;;;;;;18.60;8.70;;;;;;;19.15;100.00;101056.86;107334;1249;63060;-72
2022/08/30 00:50:52;;;;;;;13.10;8.50;;;;;;;19.12;99.75;101052.22;107359;1248;71419;-70
2022/08/30 00:53:28;;;;;;;10.10;7.30;;;;;;;19.06;99.34;101048.73;107379;1247;70956;-67
2022/08/30 00:55:59;;;;;;;12.70;8.10;;;;;;;18.95;99.55;101061.76;107326;1248;74258;-69
2022/08/30 00:58:34;;;;;;;11.80;7.80;;;;;;;18.91;99.57;101068.71;107330;1247;58887;-69
2022/08/30 01:01:05;;;;;;;11.20;7.80;;;;;;;18.88;99.86;101073.38;107263;1249;61007;-68
2022/08/30 01:03:36;;;;;;;12.20;7.50;;;;;;;18.90;100.00;101083.80;107346;1247;73268;-68
2022/08/30 01:06:06;;;;;;;8.30;7.20;;;;;;;18.91;100.00;101087.21;107357;1248;62952;-68
2022/08/30 01:08:35;;;;;;;11.10;8.40;;;;;;;18.90;100.00;101091.66;107357;1249;68275;-68
2022/08/30 01:11:05;;;;;;;10.20;8.10;;;;;;;18.96;100.00;101095.86;107319;1249;63981;-67
2022/08/30 01:13:35;;;;;;;13.30;8.20;;;;;;;19.02;100.00;101100.91;107365;1247;62371;-68
2022/08/30 01:16:04;;;;;;;12.30;9.30;;;;;;;19.03;100.00;101104.27;107281;1249;60393;-69
2022/08/30 01:18:35;;;;;;;12.00;8.50;;;;;;;19.01;100.00;101105.39;107213;1248;74268;-68
2022/08/30 01:21:07;;;;;;;10.90;8.00;;;;;;;18.97;100.00;101105.44;107252;1248;72678;-67
2022/08/30 01:23:42;;;;;;;10.40;7.70;;;;;;;18.93;100.00;101105.88;107221;1247;70754;-70
2022/08/30 01:26:12;;;;;;;10.30;8.00;;;;;;;18.89;100.00;101104.83;107193;1249;63838;-68
2022/08/30 01:28:47;;;;;;;9.50;7.90;;;;;;;18.89;100.00;101104.50;107182;1247;62888;-69
2022/08/30 01:31:17;;;;;;;12.00;7.90;;;;;;;18.88;99.68;101102.14;107136;1249;58992;-69
2022/08/30 01:33:45;;;;;;;11.80;8.10;;;;;;;18.84;100.00;101102.38;107212;1247;72858;-69
2022/08/30 01:36:16;;;;;;;12.00;8.70;;;;;;;18.80;99.97;101098.90;107192;1249;62121;-70
2022/08/30 01:38:51;;;;;;;11.90;9.20;;;;;;;18.77;99.96;101108.48;107224;1247;69814;-69
2022/08/30 01:41:24;;;;;;;10.30;9.10;;;;;;;18.79;99.59;101109.41;107202;1250;63284;-69
2022/08/30 01:43:56;;;;;;;12.40;9.80;;;;;;;18.83;100.00;101111.25;107185;1248;62013;-69
2022/08/30 01:46:36;;;;;;;14.20;9.50;;;;;;;18.84;100.00;101112.77;107158;1249;60998;-68
2022/08/30 01:49:12;;;;;;;13.50;10.30;;;;;;;18.87;100.00;101114.63;107151;1249;73862;-66
2022/08/30 01:51:42;;;;;;;16.80;10.50;;;;;;;18.88;99.27;101116.79;107306;1248;72218;-68
2022/08/30 01:54:11;;;;;;;15.30;10.90;;;;;;;18.87;99.76;101115.98;107336;1250;59737;-68
2022/08/30 01:56:40;;;;;;;13.50;11.10;;;;;;;18.87;99.65;101116.39;107335;1249;64275;-67
2022/08/30 01:59:09;;;;;;;17.10;11.90;;;;;;;18.88;99.36;101119.83;107279;1248;62229;-68
2022/08/30 02:01:39;;;;;;;11.40;9.00;;;;;;;18.90;99.33;101122.27;107294;1248;59065;-68
2022/08/30 02:04:11;;;;;;;17.80;11.60;;;;;;;18.97;99.92;101123.64;107188;1249;72502;-68
2022/08/30 02:06:40;;;;;;;15.20;11.00;;;;;;;18.94;100.00;101124.46;107186;1248;72776;-68
2022/08/30 02:09:11;;;;;;;20.00;14.00;;;;;;;18.92;100.00;101127.45;107051;1250;60711;-68
2022/08/30 02:11:40;;;;;;;20.50;14.00;;;;;;;18.84;100.00;101124.80;107307;1249;63204;-68
2022/08/30 02:14:09;;;;;;;17.00;14.10;;;;;;;18.78;100.00;101121.27;107309;1248;59162;-68
2022/08/30 02:16:39;;;;;;;17.60;13.30;;;;;;;18.75;100.00;101120.35;107354;1249;59062;-68
2022/08/30 02:19:08;;;;;;;19.90;13.90;;;;;;;18.72;100.00;101125.38;107472;1249;63212;-68
2022/08/30 02:21:40;;;;;;;20.10;15.20;;;;;;;18.71;100.00;101127.32;107337;1248;72688;-69
2022/08/30 02:24:09;;;;;;;17.00;13.10;;;;;;;18.70;100.00;101128.61;107304;1250;61283;-68
2022/08/30 02:26:38;;;;;;;16.60;12.70;;;;;;;18.69;100.00;101128.59;107389;1248;62495;-68
2022/08/30 02:29:08;;;;;;;17.40;13.60;;;;;;;18.67;100.00;101129.45;107343;1247;59100;-69
2022/08/30 02:31:36;;;;;;;17.10;12.50;;;;;;;18.67;100.00;101128.98;107445;1248;60382;-69
2022/08/30 02:34:06;;;;;;;19.10;13.40;;;;;;;18.65;100.00;101130.73;107472;1247;73151;-68
2022/08/30 02:36:35;;;;;;;18.90;13.90;;;;;;;18.64;100.00;101134.55;107518;1247;62175;-70
2022/08/30 02:39:04;;;;;;;20.20;14.70;;;;;;;18.61;100.00;101139.18;107366;1249;59201;-70
2022/08/30 02:41:33;;;;;;;21.10;14.90;;;;;;;18.61;100.00;101136.61;107284;1249;72058;-70
2022/08/30 02:44:03;;;;;;;18.70;15.00;;;;;;;18.60;100.00;101134.77;107439;1249;58824;-69
2022/08/30 02:46:33;;;;;;;21.70;16.30;;;;;;;18.61;100.00;101134.52;107262;1251;59125;-66
2022/08/30 02:49:03;;;;;;;23.80;16.80;;;;;;;18.59;100.00;101134.30;107344;1249;63026;-71
2022/08/30 02:51:52;;;;;;;26.30;18.40;;;;;;;18.58;100.00;101132.67;107218;1249;71560;-72
2022/08/30 02:54:20;;;;;;;21.60;17.40;;;;;;;18.56;100.00;101131.27;107263;1249;70808;-70
2022/08/30 02:56:49;;;;;;;23.90;16.20;;;;;;;18.54;100.00;101133.17;107356;1249;73431;-69
2022/08/30 02:59:18;;;;;;;24.30;17.20;;;;;;;18.53;100.00;101134.74;107439;1249;59103;-67
2022/08/30 03:01:49;;;;;;;26.40;18.00;;;;;;;18.50;100.00;101136.65;107394;1247;61412;-72
2022/08/30 03:04:18;;;;;;;24.10;17.30;;;;;;;18.45;100.00;101138.30;107304;1248;73101;-71
2022/08/30 03:06:54;;;;;;;33.50;19.50;;;;;;;18.43;100.00;101142.37;107333;1248;72648;-70
2022/08/30 03:09:23;;;;;;;25.40;17.00;;;;;;;18.45;100.00;101150.38;107387;1249;71874;-67
2022/08/30 03:11:52;;;;;;;24.90;18.50;;;;;;;18.45;100.00;101150.39;107208;1249;75008;-69
2022/08/30 03:14:20;;;;;;;26.00;18.10;;;;;;;18.44;100.00;101149.71;107303;1247;63446;-68
2022/08/30 03:16:50;;;;;;;25.90;18.40;;;;;;;18.43;100.00;101151.29;107260;1249;61566;-68
2022/08/30 03:19:20;;;;;;;30.90;19.60;;;;;;;18.41;100.00;101155.70;107380;1246;73629;-68
2022/08/30 03:21:49;;;;;;;27.90;20.30;;;;;;;18.41;100.00;101156.02;107275;1249;72210;-68
2022/08/30 03:24:18;;;;;;;27.20;19.70;;;;;;;18.37;100.00;101151.80;107353;1248;61265;-71
2022/08/30 03:26:47;;;;;;;29.60;19.70;;;;;;;18.38;100.00;101152.23;107323;1247;73739;-69
2022/08/30 03:29:15;;;;;;;30.20;20.60;;;;;;;18.39;100.00;101147.27;107283;1247;62038;-69
2022/08/30 03:31:44;;;;;;;26.50;18.70;;;;;;;18.38;100.00;101147.31;107401;1248;61271;-69
2022/08/30 03:34:22;;;;;;;24.40;18.30;;;;;;;18.37;100.00;101150.40;107278;1249;73635;-70
2022/08/30 03:36:54;;;;;;;29.80;19.10;;;;;;;18.39;100.00;101151.81;107336;1249;61545;-69
2022/08/30 03:39:24;;;;;;;27.90;20.40;;;;;;;18.43;100.00;101152.69;108194;1247;60122;-70
2022/08/30 03:41:53;;;;;;;27.40;19.30;;;;;;;18.46;100.00;101151.98;107318;1249;64483;-70
2022/08/30 03:44:22;;;;;;;28.10;19.00;;;;;;;18.49;100.00;101149.73;107379;1247;63168;-69
2022/08/30 03:46:51;;;;;;;25.30;17.10;;;;;;;18.52;100.00;101148.00;107365;1249;57544;-70
2022/08/30 03:49:20;;;;;;;26.00;18.90;;;;;;;18.55;100.00;101146.48;107436;1247;62942;-69
2022/08/30 03:51:50;;;;;;;30.20;19.30;;;;;;;18.58;100.00;101151.03;107409;1248;61678;-70
2022/08/30 03:54:19;;;;;;;22.30;16.40;;;;;;;18.62;100.00;101149.52;107206;1249;60367;-70
2022/08/30 03:56:48;;;;;;;30.10;19.20;;;;;;;18.68;100.00;101153.36;107384;1249;62485;-71
2022/08/30 03:59:17;;;;;;;21.60;15.80;;;;;;;18.64;100.00;101153.23;107228;1250;57562;-70
2022/08/30 04:01:46;;;;;;;25.20;17.00;;;;;;;18.67;100.00;101151.65;107437;1248;59437;-73
2022/08/30 04:04:16;;;;;;;32.10;18.20;;;;;;;18.66;100.00;101150.91;107312;1250;73465;-70
2022/08/30 04:06:48;;;;;;;;;;;;;;;18.62;100.00;101153.55;107335;1249;61466;-70
2022/08/30 04:09:18;;;;;;;32.00;19.00;;;;;;;18.59;100.00;101152.16;107326;1249;59281;-70
2022/08/30 04:11:47;;;;;;;27.20;18.90;;;;;;;18.55;100.00;101154.30;107273;1249;62416;-70
2022/08/30 04:14:17;;;;;;;26.90;19.20;;;;;;;18.58;100.00;101157.55;107165;1249;58977;-70
2022/08/30 04:16:46;;;;;;;28.40;18.60;;;;;;;18.60;100.00;101161.88;107215;1249;60457;-70
2022/08/30 04:19:15;;;;;;;28.90;19.00;;;;;;;18.62;100.00;101160.10;107176;1249;74445;-67
2022/08/30 04:21:44;;;;;;;21.20;16.60;;;;;;;18.71;100.00;101162.81;107198;1247;73466;-69
2022/08/30 04:24:13;;;;;;;27.10;17.80;;;;;;;18.78;100.00;101167.84;107214;1247;70912;-70
2022/08/30 04:26:42;;;;;;;26.70;16.10;;;;;;;18.79;100.00;101170.04;107190;1248;74837;-68
2022/08/30 04:29:15;;;;;;;26.90;16.60;;;;;;;18.87;100.00;101173.14;107076;1249;61892;-69
2022/08/30 04:31:44;;;;;;;;;;;;;;;18.87;100.00;101174.73;107128;1249;60802;-69
2022/08/30 04:34:13;;;;;;;27.90;18.30;;;;;;;18.90;100.00;101176.43;107350;1248;73782;-70
2022/08/30 04:36:42;;;;;;;28.80;20.30;;;;;;;18.94;100.00;101180.53;107328;1248;61838;-70
2022/08/30 04:39:17;;;;;;;33.00;19.10;;;;;;;19.04;100.00;101176.88;107096;1248;70567;-68
2022/08/30 04:41:47;;;;;;;25.90;17.90;;;;;;;19.10;100.00;101174.43;107133;1249;63233;-70
2022/08/30 04:44:16;;;;;;;25.10;18.80;;;;;;;19.21;100.00;101177.02;107189;1247;63071;-69
2022/08/30 04:46:47;;;;;;;25.00;18.10;;;;;;;19.29;100.00;101174.02;107073;1249;60746;-69
2022/08/30 04:49:16;;;;;;;29.00;19.30;;;;;;;19.36;100.00;101170.45;107226;1248;74845;-69
2022/08/30 04:51:45;;;;;;;31.40;18.90;;;;;;;19.43;100.00;101168.58;107173;1248;72679;-69
2022/08/30 04:54:14;;;;;;;28.20;18.70;;;;;;;19.52;100.00;101169.69;107311;1247;69788;-69
2022/08/30 04:56:43;;;;;;;23.60;19.10;;;;;;;19.62;100.00;101170.88;107364;1249;73801;-69
2022/08/30 04:59:12;;;;;;;26.10;17.00;;;;;;;19.70;100.00;101170.73;107254;1249;62906;-69
2022/08/30 05:01:41;;;;;;;25.40;17.30;;;;;;;19.74;100.00;101170.11;107255;1249;61102;-69
2022/08/30 05:04:14;;;;;;;24.60;16.70;;;;;;;19.82;100.00;101167.90;107370;1247;71678;-65
2022/08/30 05:06:43;;;;;;;22.80;16.40;;;;;;;19.95;100.00;101173.97;107263;1249;60934;-64
2022/08/30 05:09:12;;;;;;;21.60;15.90;;;;;;;20.00;100.00;101182.24;107317;1249;59253;-65
2022/08/30 05:11:42;;;;;;;23.70;15.80;;;;;;;20.09;99.36;101186.41;107358;1247;62705;-65
2022/08/30 05:14:11;;;;;;;22.80;15.70;;;;;;;20.17;98.29;101184.38;107149;1250;62956;-69
2022/08/30 05:16:40;;;;;;;25.10;16.80;;;;;;;20.26;97.65;101187.42;107276;1249;61755;-66
2022/08/30 05:19:09;;;;;;;23.60;15.30;;;;;;;20.34;97.55;101192.22;107314;1249;63457;-63
2022/08/30 05:21:39;;;;;;;22.70;16.40;;;;;;;20.43;97.12;101195.58;107291;1249;60996;-65
2022/08/30 05:24:08;;;;;;;25.80;16.70;;;;;;;20.53;97.33;101198.27;107226;1249;71588;-72
2022/08/30 05:26:38;;;;;;;21.00;14.90;;;;;;;20.61;96.72;101198.42;107347;1249;63789;-68
2022/08/30 05:29:06;;;;;;;22.40;15.80;;;;;;;20.71;95.63;101202.84;107249;1249;62059;-69
2022/08/30 05:31:36;;;;;;;22.10;15.40;;;;;;;20.77;95.44;101204.13;107272;1249;58962;-69
2022/08/30 05:34:06;;;;;;;17.20;13.80;;;;;;;20.83;95.29;101202.61;107375;1249;72864;-70
2022/08/30 05:36:37;;;;;;;21.00;15.40;;;;;;;20.91;94.19;101203.48;107220;1250;73203;-70
2022/08/30 05:39:09;;;;;;;21.90;15.10;;;;;;;21.05;94.39;101209.45;107365;1249;59604;-70
2022/08/30 05:41:38;;;;;;;20.20;15.30;;;;;;;21.13;94.63;101210.71;107228;1249;73343;-71
2022/08/30 05:44:09;;;;;;;18.60;13.90;;;;;;;21.22;93.91;101215.41;107263;1249;58990;-70
2022/08/30 05:46:41;;;;;;;20.40;14.00;;;;;;;21.31;92.53;101218.33;107281;1249;60112;-71
2022/08/30 05:49:10;;;;;;;;;;;;;;;21.40;91.60;101215.18;107312;1249;73454;-71
2022/08/30 05:51:39;;;;;;;19.90;14.60;;;;;;;21.48;91.11;101210.75;107266;1249;60872;-71
2022/08/30 05:54:14;;;;;;;20.90;13.70;;;;;;;21.60;91.42;101211.35;107308;1249;60920;-70
2022/08/30 05:56:44;;;;;;;17.10;13.90;;;;;;;21.73;90.40;101214.06;107192;1249;73147;-71
2022/08/30 05:59:14;;;;;;;16.60;12.70;;;;;;;21.83;89.52;101212.86;107299;1249;58875;-70
2022/08/30 06:01:46;;;;;;;17.40;13.30;;;;;;;21.77;88.71;101218.27;107258;1249;59109;-71
2022/08/30 06:04:16;;;;;;;18.70;12.50;;;;;;;21.70;88.64;101223.41;107335;1248;63091;-68
2022/08/30 06:06:45;;;;;;;16.40;12.60;;;;;;;21.89;88.65;101228.90;107290;1249;61588;-71
2022/08/30 06:09:15;;;;;;;16.90;12.90;;;;;;;22.01;86.79;101231.94;107313;1249;70986;-70
2022/08/30 06:11:45;;;;;;;15.10;12.00;;;;;;;22.17;85.91;101229.22;107246;1249;75019;-70
2022/08/30 06:14:14;;;;;;;18.30;11.90;;;;;;;22.29;85.27;101228.47;107361;1249;62499;-72
2022/08/30 06:16:44;;;;;;;15.70;12.20;;;;;;;22.21;85.63;101227.25;107337;1249;58951;-70
2022/08/30 06:19:14;;;;;;;16.40;12.60;;;;;;;22.33;84.68;101227.77;107228;1250;62924;-71
2022/08/30 06:21:48;;;;;;;17.00;12.00;;;;;;;22.26;84.40;101228.61;107278;1249;71451;-70
2022/08/30 06:24:17;;;;;;;17.00;12.40;;;;;;;22.48;83.60;101227.99;107154;1248;70973;-71
2022/08/30 06:26:52;;;;;;;17.70;12.30;;;;;;;22.53;83.66;101230.98;107300;1249;74760;-71
2022/08/30 06:29:22;;;;;;;14.90;11.80;;;;;;;22.55;83.66;101229.88;107132;1249;63374;-71
2022/08/30 06:31:51;;;;;;;15.60;12.30;;;;;;;22.64;84.14;101232.41;107202;1249;58990;-67
2022/08/30 06:34:20;;;;;;;15.50;11.50;;;;;;;22.57;82.86;101233.68;107216;1249;62265;-69
2022/08/30 06:36:49;;;;;;;17.30;11.80;;;;;;;22.83;81.45;101236.94;107311;1247;72681;-68
2022/08/30 06:39:17;;;;;;;16.60;12.70;;;;;;;22.95;81.14;101235.57;107290;1247;70930;-71
2022/08/30 06:41:46;;;;;;;16.20;10.80;;;;;;;23.04;79.99;101232.20;107221;1249;73989;-69
2022/08/30 06:44:27;;;;;;;16.90;12.00;;;;;;;23.13;78.49;101229.05;107394;1248;61853;-68
2022/08/30 06:46:57;;;;;;;15.30;11.40;;;;;;;23.07;79.02;101227.77;107373;1247;59006;-70
2022/08/30 06:49:26;;;;;;;16.90;12.30;;;;;;;23.20;78.59;101226.56;107327;1249;62028;-69
2022/08/30 06:51:55;;;;;;;15.90;11.60;;;;;;;23.27;77.65;101231.76;107299;1249;60916;-69
2022/08/30 06:54:24;;;;;;;17.60;11.70;;;;;;;23.38;76.72;101233.48;107454;1247;60017;-69
2022/08/30 06:56:53;;;;;;;13.50;10.70;;;;;;;23.52;75.43;101227.73;107420;1247;71749;-70
2022/08/30 06:59:27;;;;;;;15.60;11.90;;;;;;;23.56;76.45;101232.93;107397;1248;63739;-70
2022/08/30 07:01:56;;;;;;;15.00;11.50;;;;;;;23.73;74.78;101230.80;107341;1249;59874;-70
2022/08/30 07:04:25;;;;;;;14.00;11.90;;;;;;;23.80;74.35;101231.75;107325;1249;63620;-71
2022/08/30 07:06:54;;;;;;;15.10;11.50;;;;;;;24.06;73.17;101234.10;107274;1251;61678;-70
2022/08/30 07:09:23;;;;;;;15.10;11.90;;;;;;;24.13;72.09;101236.55;107247;1250;60136;-69
2022/08/30 07:11:53;;;;;;;16.40;11.40;;;;;;;24.33;71.81;101233.45;107258;1249;73259;-70
2022/08/30 07:14:22;;;;;;;13.40;10.30;;;;;;;24.48;71.06;101230.88;107187;1250;62863;-73
2022/08/30 07:16:51;;;;;;;14.40;10.60;;;;;;;24.53;70.44;101234.02;107512;1248;61865;-70
2022/08/30 07:19:21;;;;;;;20.80;11.70;;;;;;;24.67;69.91;101231.40;107378;1249;73378;-73
2022/08/30 07:21:50;;;;;;;15.80;11.30;;;;;;;24.74;68.03;101235.65;107198;1251;61380;-72
2022/08/30 07:24:20;;;;;;;21.60;10.70;;;;;;;24.74;67.52;101239.41;106389;1249;1632739;-71
2022/08/30 07:26:50;;;;;;;14.00;10.30;;;;;;;24.77;67.32;101238.85;107524;1248;73497;-69
2022/08/30 07:29:20;;;;;;;13.90;10.70;;;;;;;24.89;66.34;101233.38;107475;1249;61117;-71
2022/08/30 07:31:48;;;;;;;14.20;10.60;;;;;;;24.98;66.46;101234.56;107396;1250;61122;-72
2022/08/30 07:34:17;;;;;;;14.40;11.20;;;;;;;25.06;65.85;101230.45;107359;1249;72885;-71
2022/08/30 07:36:49;;;;;;;13.10;10.80;;;;;;;25.27;65.46;101233.66;107378;1250;62806;-71
2022/08/30 07:39:18;;;;;;;12.90;9.50;;;;;;;25.36;65.05;101232.88;107394;1250;60197;-72
2022/08/30 07:41:48;;;;;;;13.20;9.90;;;;;;;25.45;65.00;101235.95;107272;1247;74295;-71
2022/08/30 07:44:17;;;;;;;13.80;9.90;;;;;;;25.56;64.38;101236.30;107328;1249;58837;-73
2022/08/30 07:46:48;;;;;;;14.50;11.00;;;;;;;25.67;64.37;101235.12;107476;1249;60415;-70
2022/08/30 07:49:18;;;;;;;13.10;9.90;;;;;;;25.74;63.44;101235.26;107330;1249;73537;-72
2022/08/30 07:51:47;;;;;;;11.90;9.60;;;;;;;25.70;62.96;101229.92;107250;1249;61250;-73
2022/08/30 07:54:16;;;;;;;12.80;9.60;;;;;;;25.74;62.17;101232.45;107383;1250;59238;-75
2022/08/30 07:56:45;;;;;;;13.90;10.10;;;;;;;25.74;62.53;101234.64;107315;1248;73346;-71
2022/08/30 07:59:14;;;;;;;15.10;9.70;;;;;;;25.89;62.36;101234.27;107300;1249;58857;-71
2022/08/30 08:01:43;;;;;;;14.20;9.60;;;;;;;26.10;61.76;101233.66;107306;1248;60334;-71
2022/08/30 08:04:11;;;;;;;11.80;9.80;;;;;;;26.10;61.53;101239.22;107293;1249;74131;-71
2022/08/30 08:06:41;;;;;;;14.10;9.00;;;;;;;26.33;60.54;101238.69;107392;1248;73622;-73
2022/08/30 08:09:10;;;;;;;11.30;9.70;;;;;;;26.33;59.52;101239.17;107190;1250;71407;-70
2022/08/30 08:11:40;;;;;;;14.10;9.50;;;;;;;26.51;59.80;101238.79;107347;1247;72621;-71
2022/08/30 08:14:09;;;;;;;14.50;9.60;;;;;;;26.64;60.01;101242.48;107267;1249;61348;-71
2022/08/30 08:16:38;;;;;;;14.50;8.70;;;;;;;26.69;60.09;101244.85;107206;1250;58944;-71
2022/08/30 08:19:07;;;;;;;11.60;9.40;;;;;;;26.70;59.42;101240.84;107345;1249;62238;-71
2022/08/30 08:21:37;;;;;;;11.60;9.10;;;;;;;26.60;59.25;101237.95;107371;1249;72370;-72
2022/08/30 08:24:06;;;;;;;12.80;9.40;;;;;;;26.53;59.26;101238.18;107219;1252;71533;-72
2022/08/30 08:26:37;;;;;;;12.30;9.20;;;;;;;26.55;59.42;101236.13;107294;1249;63167;-71
2022/08/30 08:29:09;;;;;;;12.00;8.80;;;;;;;26.51;58.76;101234.39;107370;1250;58991;-71
2022/08/30 08:31:40;;;;;;;16.70;9.30;;;;;;;26.45;58.91;101229.80;107404;1247;60736;-71
2022/08/30 08:34:10;;;;;;;13.80;10.30;;;;;;;26.32;59.22;101234.32;107364;1249;73453;-73
2022/08/30 08:36:40;;;;;;;11.10;9.60;;;;;;;26.44;59.05;101232.23;107329;1249;62583;-70
2022/08/30 08:39:09;;;;;;;12.50;8.80;;;;;;;26.50;58.62;101235.38;107239;1249;70710;-72
2022/08/30 08:41:59;;;;;;;13.00;9.50;;;;;;;26.45;58.41;101233.54;107220;1249;62793;-72
2022/08/30 08:44:31;;;;;;;11.10;8.60;;;;;;;26.32;59.45;101232.70;107361;1249;59143;-72
2022/08/30 08:47:40;;;;;;;11.20;8.90;;;;;;;26.51;58.74;101231.91;107487;1248;59049;-72
2022/08/30 08:50:18;;;;;;;13.30;9.30;;;;;;;26.34;58.22;101229.63;107394;1248;62979;-70
2022/08/30 08:53:34;;;;;;;13.50;8.90;;;;;;;26.41;58.54;101224.66;107429;1249;60768;-71
2022/08/30 08:56:21;;;;;;;12.80;9.10;;;;;;;26.36;58.66;101227.75;107377;1247;69817;-71
2022/08/30 08:58:56;;;;;;;14.70;9.50;;;;;;;26.39;58.35;101225.77;107341;1249;62460;-73
2022/08/30 09:01:29;;;;;;;13.80;8.70;;;;;;;26.23;59.28;101225.05;107350;1251;59050;-71
2022/08/30 09:04:04;;;;;;;10.50;8.90;;;;;;;26.33;58.46;101221.18;107279;1250;59831;-71
2022/08/30 09:07:04;;;;;;;12.40;8.70;;;;;;;26.41;58.36;101217.46;107253;1250;72711;-69
2022/08/30 09:09:37;;;;;;;13.40;8.40;;;;;;;26.38;58.43;101214.16;107370;1250;61507;-72
2022/08/30 09:12:10;;;;;;;15.00;9.00;;;;;;;26.50;58.22;101215.55;107097;1251;60066;-72
2022/08/30 09:14:45;;;;;;;9.90;7.30;;;;;;;26.34;57.23;101215.09;107275;1249;72278;-73
2022/08/30 09:17:17;;;;;;;8.30;6.50;;;;;;;26.44;56.61;101210.96;107290;1251;60264;-71
2022/08/30 09:19:52;;;;;;;10.80;7.40;;;;;;;26.49;55.88;101207.81;107371;1250;57425;-71
2022/08/30 09:22:41;;;;;;;10.50;6.90;;;;;;;26.53;55.79;101199.69;107318;1251;71798;-73
2022/08/30 09:25:31;;;;;;;12.60;7.10;;;;;;;26.53;55.76;101202.50;107049;1250;72528;-71
2022/08/30 09:28:17;;;;;;;10.60;7.00;;;;;;;26.46;55.62;101205.06;107212;1249;60340;-73
2022/08/30 09:31:33;;;;;;;9.80;7.00;;;;;;;26.44;55.46;101202.10;107130;1251;62525;-71
2022/08/30 09:34:14;;;;;;;9.80;6.60;;;;;;;26.55;55.59;101197.38;107247;1249;60804;-71
2022/08/30 09:36:54;;;;;;;13.00;7.30;;;;;;;26.67;55.31;101190.73;107182;1250;59148;-68
2022/08/30 09:39:40;;;;;;;11.30;6.80;;;;;;;26.92;54.97;101190.40;107114;1251;74154;-72
2022/08/30 09:42:28;;;;;;;10.60;6.90;;;;;;;27.06;54.64;101185.28;107138;1247;73373;-70
2022/08/30 09:45:09;;;;;;;7.50;6.50;;;;;;;27.17;54.18;101184.70;107162;1251;59592;-70
2022/08/30 09:47:43;;;;;;;12.20;7.20;;;;;;;27.08;54.21;101183.70;107137;1251;73974;-70
2022/08/30 09:50:21;;;;;;;8.70;6.60;;;;;;;27.31;53.15;101176.98;107248;1249;61536;-69
2022/08/30 09:53:19;;;;;;;8.80;6.80;;;;;;;27.59;52.87;101171.00;107296;1251;61543;-69
2022/08/30 09:56:10;;;;;;;8.50;7.10;;;;;;;27.81;51.75;101168.25;107340;1250;74500;-70
2022/08/30 09:58:58;;;;;;;8.30;6.50;;;;;;;27.94;52.01;101162.03;107123;1250;71744;-71
2022/08/30 10:01:39;;;;;;;10.50;7.40;;;;;;;28.07;51.94;101157.09;107159;1249;70896;-70
2022/08/30 10:04:33;;;;;;;8.70;6.40;;;;;;;28.44;51.09;101156.49;107229;1249;62922;-71
2022/08/30 10:07:19;;;;;;;9.90;6.30;;;;;;;28.69;49.41;101154.80;107261;1248;60590;-71
2022/08/30 10:09:59;;;;;;;8.30;6.50;;;;;;;28.65;49.26;101153.48;107016;1251;58463;-70
2022/08/30 10:12:55;;;;;;;13.00;7.60;;;;;;;28.80;49.25;101145.14;107241;1249;73558;-70
2022/08/30 10:15:42;;;;;;;10.80;6.70;;;;;;;28.66;49.99;101147.60;107173;1250;72835;-72
2022/08/30 10:18:35;;;;;;;8.80;6.90;;;;;;;28.76;48.98;101142.48;107197;1250;70622;-70
2022/08/30 10:21:24;;;;;;;10.10;7.50;;;;;;;28.72;49.36;101139.54;107174;1249;64604;-70
2022/08/30 10:24:03;;;;;;;9.30;7.50;;;;;;;29.02;49.15;101134.32;107273;1250;60457;-72
2022/08/30 10:26:39;;;;;;;9.00;7.00;;;;;;;28.58;49.84;101138.25;107350;1249;60849;-70
2022/08/30 10:29:39;;;;;;;10.20;7.30;;;;;;;28.88;49.55;101132.36;107236;1250;62805;-71
2022/08/30 10:32:43;;;;;;;10.00;6.70;;;;;;;29.15;48.75;101132.19;107312;1250;72403;-72
2022/08/30 10:35:24;;;;;;;9.10;6.90;;;;;;;29.26;47.88;101132.11;107333;1250;70121;-71
2022/08/30 10:38:21;;;;;;;11.10;7.10;;;;;;;29.21;48.25;101132.88;107128;1251;63770;-71
2022/08/30 10:41:29;;;;;;;10.60;7.00;;;;;;;29.14;48.05;101137.96;107295;1249;58919;-69
2022/08/30 10:44:38;;;;;;;10.50;7.10;;;;;;;29.12;48.07;101141.58;107129;1251;60546;-68
2022/08/30 10:47:53;;;;;;;7.90;6.30;;;;;;;29.15;47.42;101140.48;107326;1249;74261;-71
2022/08/30 10:50:39;;;;;;;8.20;6.60;;;;;;;29.12;47.32;101139.09;107233;1251;72162;-71
2022/08/30 10:53:18;;;;;;;9.60;6.00;;;;;;;29.12;47.47;101141.21;107291;1249;70131;-70
2022/08/30 10:56:04;;;;;;;9.80;6.30;;;;;;;29.05;47.45;101139.96;107384;1250;63874;-70
2022/08/30 10:58:36;;;;;;;6.80;5.90;;;;;;;29.06;47.58;101143.44;107423;1247;61385;-70
2022/08/30 11:01:35;;;;;;;8.10;6.10;;;;;;;28.95;47.34;101138.55;107659;1248;61721;-72
2022/08/30 11:04:39;;;;;;;9.80;6.20;;;;;;;28.71;47.50;101136.35;107543;1250;73372;-73
2022/08/30 11:07:32;;;;;;;8.40;6.00;;;;;;;29.24;46.76;101137.85;107338;1250;73247;-69
2022/08/30 11:10:25;;;;;;;8.40;5.60;;;;;;;29.41;46.22;101133.77;107416;1249;60357;-71
2022/08/30 11:13:20;;;;;;;8.80;5.60;;;;;;;29.95;45.39;101133.10;107495;1248;62433;-70
2022/08/30 11:15:59;;;;;;;10.60;5.60;;;;;;;30.45;44.03;101127.98;107478;1250;61198;-71
2022/08/30 11:18:51;;;;;;;6.10;5.10;;;;;;;30.50;43.10;101129.73;107486;1249;58675;-72
2022/08/30 11:21:42;;;;;;;6.70;5.50;;;;;;;31.18;42.53;101124.31;107219;1251;72211;-70
2022/08/30 11:24:20;;;;;;;7.90;5.60;;;;;;;31.48;41.52;101118.83;107361;1247;72900;-70
2022/08/30 11:26:56;;;;;;;6.80;5.40;;;;;;;31.62;40.63;101116.20;107422;1248;60411;-70
2022/08/30 11:29:40;;;;;;;7.30;5.20;;;;;;;31.70;39.99;101111.50;107552;1248;72759;-74
2022/08/30 11:32:12;;;;;;;6.70;5.50;;;;;;;31.55;39.53;101106.84;107474;1249;57502;-70
2022/08/30 11:34:44;;;;;;;7.50;5.90;;;;;;;31.61;39.97;101102.95;107442;1250;59672;-70
2022/08/30 11:37:41;;;;;;;7.30;5.30;;;;;;;31.53;39.79;101096.42;107379;1249;63658;-70